Time;durP1;ratioP1;P1;durP2;ratioP2;P2;SDS_P1;SDS_P2;PMS_P1;PMS_P2;Temp;Humidity;BMP_temperature;BMP_pressure;BME280_temperature;BME280_humidity;BME280_pressure;Samples;Min_cycle;Max_cycle;Signal;HPM_P1;HPM_P2
2022/03/20 00:00:22;;;;;;;;;3.00;3.00;;;;;8.32;37.00;102528.72;5112264;27;49870;-66
2022/03/20 00:02:48;;;;;;;;;5.00;4.25;;;;;8.47;37.38;102567.97;5111784;27;49728;-68
2022/03/20 00:05:15;;;;;;;;;2.75;2.25;;;;;8.39;37.35;102561.38;5105412;27;49754;-69
2022/03/20 00:07:41;;;;;;;;;3.00;3.00;;;;;8.26;37.84;102541.44;5111813;27;50747;-68
2022/03/20 00:10:07;;;;;;;;;4.50;3.50;;;;;8.39;38.65;102566.63;5111979;27;49998;-67
2022/03/20 00:12:34;;;;;;;;;2.00;1.00;;;;;8.22;38.31;102534.22;5112211;27;49735;-69
2022/03/20 00:14:59;;;;;;;;;4.25;2.25;;;;;8.20;38.02;102560.31;5112357;27;49797;-69
2022/03/20 00:17:28;;;;;;;;;0.00;0.00;;;;;8.23;38.51;102564.81;5110728;27;52249;-70
2022/03/20 00:19:53;;;;;;;;;3.00;3.00;;;;;7.72;38.13;102482.44;5112025;27;49841;-66
2022/03/20 00:22:19;;;;;;;;;4.50;4.00;;;;;8.06;38.48;102560.28;5111976;27;50075;-69
2022/03/20 00:24:44;;;;;;;;;6.00;5.25;;;;;8.13;38.98;102559.84;5111717;27;49733;-70
2022/03/20 00:27:14;;;;;;;;;4.75;4.75;;;;;8.12;39.22;102563.28;5111395;27;50522;-71
2022/03/20 00:29:40;;;;;;;;;5.00;5.00;;;;;8.06;39.53;102565.53;5111897;27;50119;-65
2022/03/20 00:32:08;;;;;;;;;5.00;3.50;;;;;8.01;39.99;102571.41;5111854;27;49939;-64
2022/03/20 00:34:34;;;;;;;;;6.50;2.25;;;;;7.91;39.03;102563.81;5111959;27;49653;-65
2022/03/20 00:37:00;;;;;;;;;3.00;3.00;;;;;7.87;39.72;102555.66;5111572;27;49907;-65
2022/03/20 00:39:25;;;;;;;;;2.50;1.50;;;;;7.53;39.69;102510.88;5111632;27;49839;-64
2022/03/20 00:41:50;;;;;;;;;2.25;2.25;;;;;7.71;39.69;102552.13;5111252;27;49692;-65
2022/03/20 00:44:16;;;;;;;;;2.25;1.50;;;;;7.68;40.14;102549.31;5111831;27;49805;-71
2022/03/20 00:46:41;;;;;;;;;1.75;1.75;;;;;7.57;40.43;102547.78;5111335;27;50288;-64
2022/03/20 00:49:07;;;;;;;;;1.00;1.00;;;;;7.66;39.69;102557.88;5111679;27;49838;-70
2022/03/20 00:51:33;;;;;;;;;1.00;1.00;;;;;7.61;39.88;102541.91;5111413;27;49940;-64
2022/03/20 00:53:59;;;;;;;;;3.00;2.25;;;;;7.61;39.95;102543.63;5111670;27;49767;-64
2022/03/20 00:56:25;;;;;;;;;5.00;2.25;;;;;7.60;40.49;102547.03;5111117;27;50658;-69
2022/03/20 00:58:50;;;;;;;;;7.75;2.25;;;;;7.54;40.60;102551.91;5111254;27;49854;-64
2022/03/20 01:01:16;;;;;;;;;5.00;3.00;;;;;7.48;40.84;102552.44;5111404;27;50294;-69
2022/03/20 01:03:42;;;;;;;;;5.00;3.00;;;;;7.45;40.89;102540.09;5111386;27;49863;-70
2022/03/20 01:06:08;;;;;;;;;2.25;2.25;;;;;7.40;40.36;102546.72;5111306;27;49950;-71
2022/03/20 01:08:35;;;;;;;;;1.00;1.00;;;;;7.24;40.49;102519.53;5111424;27;49672;-71
2022/03/20 01:11:02;;;;;;;;;2.00;2.00;;;;;7.39;40.58;102547.53;5104451;27;49923;-69
2022/03/20 01:13:28;;;;;;;;;5.00;2.00;;;;;7.36;41.15;102538.63;5111428;27;49968;-67
2022/03/20 01:15:54;;;;;;;;;3.75;3.75;;;;;6.76;41.22;102446.09;5110721;27;51558;-71
2022/03/20 01:18:20;;;;;;;;;2.50;2.25;;;;;7.28;41.67;102539.84;5110997;27;49939;-67
2022/03/20 01:20:45;;;;;;;;;2.00;1.25;;;;;7.07;41.06;102503.75;5111096;27;49956;-68
2022/03/20 01:23:10;;;;;;;;;3.00;2.00;;;;;6.86;41.10;102477.19;5109946;27;49876;-69
2022/03/20 01:25:36;;;;;;;;;1.75;1.75;;;;;7.18;41.20;102523.59;5110636;27;49820;-67
2022/03/20 01:28:02;;;;;;;;;2.50;2.00;;;;;7.17;41.62;102527.03;5111061;27;49998;-69
2022/03/20 01:30:27;;;;;;;;;3.00;2.00;;;;;7.12;41.82;102522.31;5111062;27;49797;-66
2022/03/20 01:32:52;;;;;;;;;2.00;1.25;;;;;6.82;41.69;102479.50;5111005;27;49887;-66
2022/03/20 01:35:18;;;;;;;;;1.00;1.00;;;;;7.04;41.79;102513.97;5110562;27;51268;-71
2022/03/20 01:37:43;;;;;;;;;2.00;2.00;;;;;7.00;42.09;102522.44;5110785;27;49848;-68
2022/03/20 01:40:09;;;;;;;;;6.00;2.50;;;;;6.97;41.85;102519.66;5111958;27;49913;-69
2022/03/20 01:42:38;;;;;;;;;1.50;1.25;;;;;6.94;42.17;102524.66;5114564;27;49960;-70
2022/03/20 01:45:13;;;;;;;;;2.00;2.00;;;;;6.97;41.94;102523.97;5114319;27;49768;-68
2022/03/20 01:47:38;;;;;;;;;3.00;2.25;;;;;6.64;42.29;102465.28;5114253;27;49793;-70
2022/03/20 01:50:04;;;;;;;;;1.00;1.00;;;;;6.74;42.51;102492.06;5114009;27;50406;-68
2022/03/20 01:52:30;;;;;;;;;4.25;2.00;;;;;6.90;42.43;102512.22;5114314;27;49952;-71
2022/03/20 01:54:55;;;;;;;;;2.75;2.25;;;;;6.83;42.67;102503.09;5114006;27;50548;-70
2022/03/20 01:57:21;;;;;;;;;1.75;1.75;;;;;6.75;42.30;102500.78;5114202;27;49996;-70
2022/03/20 01:59:48;;;;;;;;;5.00;3.00;;;;;6.79;43.12;102502.81;5112916;27;49881;-71
2022/03/20 02:02:13;;;;;;;;;3.25;3.25;;;;;6.55;43.43;102476.94;5114466;27;49792;-69
2022/03/20 02:04:40;;;;;;;;;3.00;1.50;;;;;6.75;43.11;102504.28;5113981;27;50550;-71
2022/03/20 02:07:06;;;;;;;;;2.25;2.25;;;;;6.32;43.29;102438.94;5113969;27;49628;-68
2022/03/20 02:09:34;;;;;;;;;2.50;2.50;;;;;6.61;43.40;102489.47;5113819;27;50086;-68
2022/03/20 02:11:59;;;;;;;;;1.00;1.00;;;;;6.68;43.90;102496.91;5114155;27;49764;-70
2022/03/20 02:14:25;;;;;;;;;3.00;3.00;;;;;6.57;43.98;102491.00;5113786;27;50405;-66
2022/03/20 02:16:51;;;;;;;;;4.00;4.00;;;;;6.60;43.80;102496.41;5113757;27;49999;-68
2022/03/20 02:19:16;;;;;;;;;4.00;3.00;;;;;6.43;44.09;102468.31;5114136;27;49718;-70
2022/03/20 02:21:45;;;;;;;;;5.25;3.50;;;;;6.37;44.50;102460.13;5113998;27;49737;-70
2022/03/20 02:24:30;;;;;;;;;5.25;2.25;;;;;6.53;44.43;102493.28;5113779;27;49817;-71
2022/03/20 02:27:17;;;;;;;;;2.50;2.00;;;;;6.52;44.53;102484.56;5112526;27;49792;-69
2022/03/20 02:29:47;;;;;;;;;2.50;2.50;;;;;6.50;45.13;102480.06;5112115;27;49888;-65
2022/03/20 02:32:15;;;;;;;;;2.00;1.75;;;;;6.08;45.08;102406.06;5113924;27;49919;-64
2022/03/20 02:34:41;;;;;;;;;2.00;2.00;;;;;6.31;45.32;102444.97;5113586;27;49628;-65
2022/03/20 02:37:08;;;;;;;;;5.00;2.50;;;;;6.41;45.54;102466.44;5113685;27;49837;-69
2022/03/20 02:39:34;;;;;;;;;0.75;0.75;;;;;6.33;45.66;102463.31;5113462;27;49676;-64
2022/03/20 02:42:04;;;;;;;;;2.25;2.25;;;;;6.35;45.88;102456.47;5113728;27;49772;-64
2022/03/20 02:44:52;;;;;;;;;2.25;1.75;;;;;6.38;45.45;102461.91;5111438;27;51277;-64
2022/03/20 02:47:22;;;;;;;;;2.50;2.50;;;;;6.37;45.79;102461.78;5113356;27;49770;-63
2022/03/20 02:49:50;;;;;;;;;4.75;2.00;;;;;6.19;45.81;102430.25;5113278;27;49821;-63
2022/03/20 02:52:15;;;;;;;;;2.00;2.00;;;;;6.34;46.11;102464.22;5112815;27;49658;-64
2022/03/20 02:54:42;;;;;;;;;4.00;2.50;;;;;6.28;46.41;102456.91;5112779;27;51671;-66
2022/03/20 02:57:08;;;;;;;;;5.00;5.00;;;;;6.17;46.94;102442.25;5113200;27;49765;-63
2022/03/20 02:59:34;;;;;;;;;5.00;5.00;;;;;6.19;46.49;102443.28;5113347;27;49919;-63
2022/03/20 03:02:03;;;;;;;;;3.00;3.00;;;;;6.21;46.82;102454.69;5106655;27;49961;-64
2022/03/20 03:04:28;;;;;;;;;6.50;3.50;;;;;6.06;47.45;102427.59;5106100;27;49812;-63
2022/03/20 03:06:54;;;;;;;;;2.00;2.00;;;;;6.01;47.16;102420.41;5113055;27;49987;-64
2022/03/20 03:12:04;;;;;;;;;4.00;3.00;;;;;6.09;47.17;102440.88;5113359;27;49832;-63
2022/03/20 03:17:27;;;;;;;;;6.00;5.00;;;;;6.03;47.69;102439.66;5112973;27;49771;-63
2022/03/20 03:19:56;;;;;;;;;5.75;3.00;;;;;6.01;47.86;102428.22;5112758;27;50290;-65
2022/03/20 03:22:24;;;;;;;;;5.00;2.25;;;;;5.51;47.87;102341.47;5112911;27;49787;-64
2022/03/20 03:24:50;;;;;;;;;5.00;5.00;;;;;5.86;47.52;102408.03;5112220;27;50553;-64
2022/03/20 03:27:15;;;;;;;;;2.75;2.50;;;;;5.97;47.65;102438.34;5112724;27;49823;-63
2022/03/20 03:29:40;;;;;;;;;3.50;3.50;;;;;5.95;47.76;102443.44;5112878;27;50017;-63
2022/03/20 03:32:06;;;;;;;;;6.00;5.25;;;;;5.88;48.00;102422.94;5112953;27;49677;-63
2022/03/20 03:37:20;;;;;;;;;6.75;5.75;;;;;5.85;48.70;102429.69;5112530;27;49766;-64
2022/03/20 03:39:46;;;;;;;;;3.00;3.00;;;;;5.82;48.57;102419.06;5112200;27;49733;-62
2022/03/20 03:42:12;;;;;;;;;7.25;7.25;;;;;5.77;48.75;102405.72;5111195;27;49978;-68
2022/03/20 03:44:37;;;;;;;;;5.75;5.75;;;;;5.74;48.34;102413.34;5112271;27;51016;-70
2022/03/20 03:47:03;;;;;;;;;5.75;4.50;;;;;5.72;48.79;102405.41;5112494;27;49560;-70
2022/03/20 03:49:28;;;;;;;;;6.00;5.00;;;;;5.77;48.74;102417.84;5112475;27;49860;-70
2022/03/20 03:51:54;;;;;;;;;7.25;6.00;;;;;5.51;49.06;102380.53;5112515;27;49946;-70
2022/03/20 03:54:19;;;;;;;;;5.00;5.00;;;;;5.73;48.79;102415.03;5111942;27;49734;-69
2022/03/20 03:56:45;;;;;;;;;5.25;2.75;;;;;5.74;48.77;102422.03;5112194;27;49943;-68
2022/03/20 03:59:10;;;;;;;;;6.75;6.00;;;;;5.68;49.44;102411.19;5112217;27;49709;-66
2022/03/20 04:01:36;;;;;;;;;5.50;5.50;;;;;5.69;48.95;102407.81;5112408;27;49862;-66
2022/03/20 04:04:01;;;;;;;;;7.75;6.00;;;;;5.49;49.03;102376.91;5111030;27;50701;-68
2022/03/20 04:06:27;;;;;;;;;6.75;5.00;;;;;5.63;49.34;102394.38;5112132;27;49786;-69
2022/03/20 04:08:54;;;;;;;;;7.75;7.00;;;;;5.73;49.37;102428.06;5111993;27;49600;-66
2022/03/20 04:11:19;;;;;;;;;6.00;6.00;;;;;5.77;49.46;102410.03;5112081;27;49669;-70
2022/03/20 04:13:45;;;;;;;;;6.00;6.00;;;;;5.72;49.89;102415.84;5110854;27;50758;-63
2022/03/20 04:16:10;;;;;;;;;9.50;6.00;;;;;5.64;49.78;102397.88;5111704;27;49668;-69
2022/03/20 04:18:35;;;;;;;;;9.25;8.50;;;;;5.66;49.77;102397.19;5110606;27;50270;-69
2022/03/20 04:21:01;;;;;;;;;4.50;4.50;;;;;5.52;50.17;102384.94;5111509;27;49959;-70
2022/03/20 04:26:10;;;;;;;;;5.25;5.25;;;;;5.61;50.32;102422.03;5107521;27;49736;-70
2022/03/20 04:28:36;;;;;;;;;6.00;5.00;;;;;5.39;50.52;102385.81;5111229;27;49934;-66
2022/03/20 04:31:02;;;;;;;;;4.25;4.25;;;;;5.38;49.94;102377.91;5111583;27;49671;-63
2022/03/20 04:33:29;;;;;;;;;2.50;2.00;;;;;5.64;50.12;102421.34;5111184;27;49756;-64
2022/03/20 04:35:55;;;;;;;;;6.50;6.50;;;;;5.66;50.21;102419.72;5110478;27;49883;-63
2022/03/20 04:38:21;;;;;;;;;12.50;8.50;;;;;5.53;50.65;102401.47;5111177;27;49993;-64
2022/03/20 04:40:48;;;;;;;;;6.00;4.75;;;;;5.36;50.00;102372.59;5111567;27;49675;-63
2022/03/20 04:43:13;;;;;;;;;9.00;7.50;;;;;5.65;50.72;102424.03;5109887;27;51221;-64
2022/03/20 04:45:39;;;;;;;;;6.50;6.50;;;;;5.57;50.69;102417.41;5111600;27;49967;-63
2022/03/20 04:58:59;;;;;;;;;9.25;6.00;;;;;5.47;50.72;102412.38;5106537;27;49950;-63
2022/03/20 05:01:25;;;;;;;;;5.25;5.25;;;;;5.30;51.53;102393.00;5111252;27;49785;-64
2022/03/20 05:03:50;;;;;;;;;6.50;5.75;;;;;5.40;51.67;102420.56;5110307;27;49841;-63
2022/03/20 05:06:15;;;;;;;;;7.50;6.00;;;;;5.38;51.43;102416.97;5111277;27;49797;-64
2022/03/20 05:08:41;;;;;;;;;9.50;8.00;;;;;5.28;51.60;102396.31;5111003;27;50465;-64
2022/03/20 05:13:50;;;;;;;;;7.25;5.00;;;;;5.24;52.25;102407.31;5111870;27;49824;-68
2022/03/20 05:16:16;;;;;;;;;6.00;6.00;;;;;5.26;52.07;102405.72;5114228;27;49874;-63
2022/03/20 05:18:42;;;;;;;;;9.00;7.75;;;;;5.23;52.29;102414.22;5114493;27;49660;-64
2022/03/20 05:21:09;;;;;;;;;11.50;8.50;;;;;5.20;52.64;102413.09;5114451;27;49814;-63
2022/03/20 05:23:35;;;;;;;;;8.00;8.00;;;;;5.19;52.28;102412.19;5113948;27;49895;-63
2022/03/20 05:26:00;;;;;;;;;10.00;10.00;;;;;4.98;52.62;102389.91;5113068;27;50027;-63
2022/03/20 05:28:26;;;;;;;;;7.75;7.75;;;;;4.81;52.25;102355.81;5113954;27;49659;-63
2022/03/20 05:30:51;;;;;;;;;8.00;8.00;;;;;5.14;52.62;102406.69;5113986;27;49696;-65
2022/03/20 05:33:17;;;;;;;;;10.50;6.00;;;;;5.10;52.46;102416.78;5113795;27;50332;-63
2022/03/20 05:35:45;;;;;;;;;10.25;7.75;;;;;4.68;53.14;102342.75;5114259;27;49750;-63
2022/03/20 05:38:11;;;;;;;;;9.25;8.75;;;;;5.08;52.58;102410.56;5114917;27;49734;-63
2022/03/20 05:40:41;;;;;;;;;12.25;9.75;;;;;5.07;52.59;102406.16;5114312;27;49952;-63
2022/03/20 05:43:10;;;;;;;;;6.00;6.00;;;;;4.84;52.93;102379.44;5113720;27;49843;-64
2022/03/20 05:45:37;;;;;;;;;9.25;8.25;;;;;4.89;52.60;102378.06;5106884;27;49767;-63
2022/03/20 05:48:04;;;;;;;;;11.75;7.25;;;;;4.99;52.58;102402.13;5114191;27;49815;-64
2022/03/20 05:50:29;;;;;;;;;10.50;9.00;;;;;4.95;53.32;102403.63;5114092;27;49746;-64
2022/03/20 05:52:54;;;;;;;;;4.75;4.75;;;;;4.80;52.98;102379.13;5113094;27;49859;-63
2022/03/20 05:58:01;;;;;;;;;9.00;7.75;;;;;4.72;53.81;102362.06;5113735;27;49788;-63
2022/03/20 05:58:05;;;;;;;;;7.75;5.25;;;;;4.92;53.36;102403.38;5109088;27;49755;-63
2022/03/20 06:00:30;;;;;;;;;12.25;8.50;;;;;4.88;53.30;102402.28;5113918;27;49795;-64
2022/03/20 06:02:56;;;;;;;;;5.00;5.00;;;;;4.75;52.77;102380.50;5113490;27;51043;-64
2022/03/20 06:05:24;;;;;;;;;10.25;8.25;;;;;4.43;52.87;102332.31;5112135;27;50163;-63
2022/03/20 06:07:49;;;;;;;;;6.25;6.25;;;;;4.83;53.18;102402.78;5107417;27;49718;-63
2022/03/20 06:10:17;;;;;;;;;9.25;7.50;;;;;4.64;53.57;102378.84;5109918;27;49975;-63
2022/03/20 06:12:43;;;;;;;;;7.50;6.25;;;;;4.79;53.77;102398.13;5112287;27;50526;-64
2022/03/20 06:15:09;;;;;;;;;8.00;8.00;;;;;4.76;53.56;102390.13;5113520;27;49673;-63
2022/03/20 06:17:46;;;;;;;;;8.00;8.00;;;;;4.66;53.36;102387.66;5113335;27;49628;-63
2022/03/20 06:20:14;;;;;;;;;4.00;4.00;;;;;4.67;53.20;102390.38;5107709;27;49870;-64
2022/03/20 06:22:41;;;;;;;;;9.00;8.75;;;;;4.76;53.73;102403.13;5112827;27;51486;-69
2022/03/20 06:25:08;;;;;;;;;10.00;8.75;;;;;4.74;53.22;102407.31;5112997;27;49893;-68
2022/03/20 06:27:52;;;;;;;;;8.50;8.25;;;;;4.89;53.13;102418.78;5111246;27;49685;-64
2022/03/20 06:30:19;;;;;;;;;8.50;8.50;;;;;4.91;52.95;102422.41;5113550;27;49954;-69
2022/03/20 06:32:45;;;;;;;;;7.00;7.00;;;;;4.78;53.37;102398.94;5112595;27;50549;-66
2022/03/20 06:35:12;;;;;;;;;8.75;7.25;;;;;4.63;53.34;102383.13;5113168;27;49663;-65
2022/03/20 06:37:43;;;;;;;;;8.75;8.75;;;;;4.87;53.57;102418.69;5112818;27;49759;-66
2022/03/20 06:40:11;;;;;;;;;12.25;9.00;;;;;4.97;53.42;102421.94;5113265;27;49624;-68
2022/03/20 06:42:37;;;;;;;;;12.75;9.25;;;;;4.97;52.94;102414.13;5112630;27;50935;-72
2022/03/20 06:45:05;;;;;;;;;14.00;9.00;;;;;4.85;53.21;102412.47;5113540;27;49855;-67
2022/03/20 06:47:32;;;;;;;;;9.50;9.50;;;;;4.97;53.79;102427.13;5113328;27;49748;-69
2022/03/20 06:49:59;;;;;;;;;14.00;13.00;;;;;5.04;53.17;102443.28;5112841;27;49918;-70
2022/03/20 06:52:24;;;;;;;;;10.00;9.00;;;;;4.87;52.87;102409.97;5108400;27;50587;-67
2022/03/20 06:54:50;;;;;;;;;17.25;14.00;;;;;5.09;53.54;102443.59;5111147;27;49781;-70
2022/03/20 06:57:18;;;;;;;;;18.50;13.50;;;;;5.12;53.21;102446.44;5112273;27;49927;-69
2022/03/20 06:59:44;;;;;;;;;9.50;7.75;;;;;5.06;53.39;102420.88;5113222;27;49974;-68
2022/03/20 07:02:09;;;;;;;;;10.50;9.75;;;;;5.22;53.16;102435.88;5111665;27;50281;-66
2022/03/20 07:04:35;;;;;;;;;11.25;11.25;;;;;5.16;52.72;102418.09;5116587;27;49862;-67
2022/03/20 07:07:01;;;;;;;;;17.50;14.25;;;;;5.16;52.98;102420.72;5113072;27;49713;-70
2022/03/20 07:09:27;;;;;;;;;18.75;16.25;;;;;5.38;52.82;102445.59;5105705;27;49705;-69
2022/03/20 07:11:52;;;;;;;;;14.00;14.00;;;;;5.20;52.82;102410.50;5112055;27;50460;-65
2022/03/20 07:14:19;;;;;;;;;14.50;8.75;;;;;4.91;53.12;102341.72;5112205;27;49663;-72
2022/03/20 07:16:44;;;;;;;;;17.75;15.00;;;;;5.45;52.82;102435.72;5112513;27;50049;-66
2022/03/20 07:19:10;;;;;;;;;17.75;16.50;;;;;5.54;53.15;102439.75;5114241;27;49821;-68
2022/03/20 07:21:36;;;;;;;;;14.25;12.00;;;;;5.58;53.10;102447.88;5112531;27;49613;-68
2022/03/20 07:24:02;;;;;;;;;18.00;12.75;;;;;5.59;52.87;102446.16;5111637;27;49859;-66
2022/03/20 07:29:30;;;;;;;;;16.00;16.00;;;;;5.47;52.25;102439.31;5105900;27;49818;-69
2022/03/20 07:31:57;;;;;;;;;21.50;21.25;;;;;5.67;52.46;102442.38;5108105;27;50648;-67
2022/03/20 07:34:23;;;;;;;;;18.00;14.00;;;;;5.58;52.26;102437.44;5111076;27;49870;-68
2022/03/20 07:36:49;;;;;;;;;25.75;20.50;;;;;5.66;52.07;102456.22;5112147;27;49720;-68
2022/03/20 07:39:14;;;;;;;;;24.00;17.00;;;;;5.42;53.08;102422.50;5112667;27;49595;-67
2022/03/20 07:41:40;;;;;;;;;23.00;18.75;;;;;5.66;52.94;102456.22;5111877;27;50630;-66
2022/03/20 07:44:05;;;;;;;;;14.75;14.75;;;;;5.51;52.49;102435.25;5111354;27;49891;-68
2022/03/20 07:46:31;;;;;;;;;19.00;17.25;;;;;5.49;52.50;102415.97;5112132;27;49683;-68
2022/03/20 07:48:58;;;;;;;;;16.25;15.50;;;;;5.43;52.63;102412.97;5112110;27;49712;-68
2022/03/20 07:51:23;;;;;;;;;24.25;21.00;;;;;5.68;52.83;102463.31;5105009;27;50746;-68
2022/03/20 07:53:50;;;;;;;;;26.25;22.75;;;;;5.69;52.76;102457.34;5111854;27;50032;-69
2022/03/20 07:56:18;;;;;;;;;21.00;17.25;;;;;5.56;53.42;102431.25;5111382;27;50038;-68
2022/03/20 07:58:43;;;;;;;;;20.75;18.00;;;;;5.78;52.91;102457.03;5111999;27;49912;-66
2022/03/20 08:01:10;;;;;;;;;24.25;17.50;;;;;5.89;52.68;102452.56;5111668;27;50524;-68
2022/03/20 08:03:35;;;;;;;;;20.25;16.25;;;;;5.96;52.61;102447.84;5111110;27;50031;-69
2022/03/20 08:06:01;;;;;;;;;19.25;18.75;;;;;6.04;52.50;102456.19;5111536;27;49718;-68
2022/03/20 08:08:26;;;;;;;;;23.00;19.50;;;;;5.84;52.72;102407.03;5111565;27;49741;-66
2022/03/20 08:10:52;;;;;;;;;31.25;21.50;;;;;6.04;52.12;102437.94;5111666;27;49747;-68
2022/03/20 08:13:17;;;;;;;;;23.50;21.75;;;;;6.15;52.32;102447.38;5108894;27;49825;-68
2022/03/20 08:15:43;;;;;;;;;24.00;24.00;;;;;6.05;52.77;102439.75;5111743;27;49671;-68
2022/03/20 08:18:09;;;;;;;;;25.25;22.75;;;;;6.19;52.96;102443.28;5111906;27;49821;-67
2022/03/20 08:20:35;;;;;;;;;20.75;18.50;;;;;6.19;52.31;102438.06;5111488;27;50536;-68
2022/03/20 08:23:03;;;;;;;;;27.25;25.25;;;;;6.21;52.71;102431.22;5111462;27;49850;-66
2022/03/20 08:25:29;;;;;;;;;27.25;23.25;;;;;6.33;52.35;102447.66;5110876;27;49836;-67
2022/03/20 08:27:54;;;;;;;;;18.75;17.50;;;;;6.42;52.41;102450.88;5106946;27;50113;-65
2022/03/20 08:30:21;;;;;;;;;18.25;14.75;;;;;6.49;52.46;102446.97;5110944;27;49777;-65
2022/03/20 08:32:47;;;;;;;;;27.25;24.25;;;;;6.52;51.90;102444.53;5109843;27;49898;-65
2022/03/20 08:35:14;;;;;;;;;30.75;25.25;;;;;6.56;52.33;102451.75;5111026;27;49743;-66
2022/03/20 08:37:44;;;;;;;;;26.75;24.50;;;;;6.39;52.08;102416.75;5110708;27;49887;-65
2022/03/20 08:40:15;;;;;;;;;28.50;26.50;;;;;6.50;52.01;102428.78;5111180;27;52020;-69
2022/03/20 08:42:47;;;;;;;;;29.00;27.25;;;;;6.57;52.11;102432.69;5126573;27;49908;-67
2022/03/20 08:45:13;;;;;;;;;26.25;26.25;;;;;6.73;51.44;102445.88;5111298;27;49856;-67
2022/03/20 08:47:39;;;;;;;;;32.75;27.75;;;;;6.69;51.52;102425.63;5111208;27;49669;-66
2022/03/20 08:50:06;;;;;;;;;31.50;29.00;;;;;6.83;51.30;102445.66;5109736;27;49716;-65
2022/03/20 08:52:31;;;;;;;;;26.50;25.50;;;;;6.98;50.95;102463.09;5111835;27;49823;-65
2022/03/20 08:54:56;;;;;;;;;35.75;31.25;;;;;6.93;50.93;102439.31;5111536;27;49628;-67
2022/03/20 08:57:25;;;;;;;;;33.25;28.75;;;;;7.17;51.04;102456.50;5113979;27;49760;-67
2022/03/20 08:59:51;;;;;;;;;39.75;29.00;;;;;7.16;50.44;102456.41;5115147;27;50520;-69
2022/03/20 09:02:17;;;;;;;;;34.00;27.75;;;;;7.25;50.84;102445.63;5110907;27;50118;-68
2022/03/20 09:04:42;;;;;;;;;28.00;28.00;;;;;7.22;50.49;102419.28;5110271;27;49793;-71
2022/03/20 09:07:08;;;;;;;;;25.00;21.75;;;;;7.53;50.74;102456.94;5110397;27;49733;-68
2022/03/20 09:09:33;;;;;;;;;31.50;26.25;;;;;7.54;50.25;102458.72;5111250;27;49840;-72
2022/03/20 09:12:00;;;;;;;;;34.50;29.00;;;;;7.53;50.23;102458.63;5111457;27;49754;-71
2022/03/20 09:14:25;;;;;;;;;33.00;29.00;;;;;7.36;50.61;102424.56;5111752;27;49764;-75
2022/03/20 09:19:36;;;;;;;;;29.00;27.25;;;;;7.59;49.88;102446.81;5106731;27;50120;-72
2022/03/20 09:22:02;;;;;;;;;29.00;27.00;;;;;7.63;49.73;102461.00;5111458;27;49763;-74
2022/03/20 09:24:28;;;;;;;;;32.00;29.00;;;;;7.75;50.23;102469.56;5111420;27;49903;-76
2022/03/20 09:26:53;;;;;;;;;34.00;31.50;;;;;7.70;49.40;102443.13;5111404;27;49731;-75
2022/03/20 09:29:18;;;;;;;;;29.75;24.25;;;;;7.87;49.68;102458.91;5111404;27;50512;-71
2022/03/20 09:31:50;;;;;;;;;33.00;31.75;;;;;7.67;49.13;102397.63;5111387;27;49840;-76
2022/03/20 09:34:15;;;;;;;;;36.75;31.75;;;;;7.90;49.53;102440.78;5111510;27;49910;-77
2022/03/20 09:36:41;;;;;;;;;33.25;27.00;;;;;7.80;48.77;102418.44;5111635;27;49645;-73
2022/03/20 09:39:06;;;;;;;;;30.50;27.00;;;;;7.92;48.71;102431.34;5111038;27;50423;-73
2022/03/20 09:41:33;;;;;;;;;42.50;35.75;;;;;8.03;48.64;102448.56;5104286;27;49594;-74
2022/03/20 09:44:03;;;;;;;;;33.00;28.50;;;;;8.10;48.44;102452.41;5111069;27;49787;-74
2022/03/20 09:46:29;;;;;;;;;32.25;30.75;;;;;8.11;48.92;102425.47;5104642;27;49908;-73
2022/03/20 09:48:56;;;;;;;;;33.75;29.50;;;;;8.24;47.88;102448.88;5111062;27;49605;-72
2022/03/20 09:51:21;;;;;;;;;36.00;33.50;;;;;8.10;48.09;102418.41;5111043;27;49660;-72
2022/03/20 09:53:47;;;;;;;;;34.50;31.00;;;;;8.36;48.88;102448.69;5111410;27;50166;-72
2022/03/20 09:56:12;;;;;;;;;40.50;34.50;;;;;8.43;47.96;102458.72;5111007;27;49731;-72
2022/03/20 09:58:38;;;;;;;;;27.75;25.25;;;;;8.40;46.09;102453.31;5110624;27;50491;-74
2022/03/20 10:01:03;;;;;;;;;35.00;32.25;;;;;8.41;46.25;102456.00;5112004;27;49887;-72
2022/03/20 10:03:29;;;;;;;;;30.50;26.75;;;;;8.39;47.43;102448.88;5114476;27;49863;-70
2022/03/20 10:06:17;;;;;;;;;38.00;32.00;;;;;8.51;46.67;102447.84;5114969;27;49608;-70
2022/03/20 10:09:00;;;;;;;;;38.75;34.25;;;;;8.54;47.20;102458.50;5107890;27;49662;-74
2022/03/20 10:11:26;;;;;;;;;42.50;35.50;;;;;8.64;47.15;102456.38;5114137;27;50289;-73
2022/03/20 10:14:10;;;;;;;;;40.50;33.50;;;;;8.75;46.37;102450.91;5114429;27;49933;-74
2022/03/20 10:16:38;;;;;;;;;36.00;33.00;;;;;8.77;46.79;102440.53;5114491;27;49839;-75
2022/03/20 10:19:23;;;;;;;;;39.50;33.75;;;;;8.81;46.29;102447.75;5112644;27;51496;-74
2022/03/20 10:21:57;;;;;;;;;35.25;30.00;;;;;8.99;45.34;102456.59;5107488;27;49553;-74
2022/03/20 10:24:26;;;;;;;;;37.00;34.75;;;;;9.00;44.96;102450.53;5108531;27;50023;-73
2022/03/20 10:27:04;;;;;;;;;28.00;25.75;;;;;8.87;44.13;102425.38;5114266;27;49786;-73
2022/03/20 10:29:34;;;;;;;;;39.00;32.25;;;;;9.13;44.82;102452.09;5114171;27;50224;-74
2022/03/20 10:32:05;;;;;;;;;30.50;30.50;;;;;8.97;44.86;102404.94;5114201;27;49982;-73
2022/03/20 10:34:53;;;;;;;;;28.75;26.25;;;;;9.28;44.26;102442.44;5113941;27;49906;-69
2022/03/20 10:37:39;;;;;;;;;33.25;27.75;;;;;9.06;44.34;102393.22;5114086;27;49701;-73
2022/03/20 10:40:09;;;;;;;;;39.25;29.50;;;;;9.37;42.94;102442.94;5108489;27;51293;-73
2022/03/20 10:42:35;;;;;;;;;35.00;28.25;;;;;9.12;41.70;102405.75;5113779;27;50024;-73
2022/03/20 10:45:08;;;;;;;;;32.75;27.75;;;;;9.29;41.25;102433.75;5112681;27;49896;-73
2022/03/20 10:47:34;;;;;;;;;35.50;29.75;;;;;8.76;42.27;102323.50;5114094;27;49897;-73
2022/03/20 10:50:06;;;;;;;;;28.50;25.75;;;;;9.51;42.83;102446.25;5113525;27;50622;-73
2022/03/20 10:52:35;;;;;;;;;24.00;22.75;;;;;9.54;41.39;102425.44;5113550;27;49852;-72
2022/03/20 10:55:07;;;;;;;;;32.00;28.00;;;;;9.50;42.07;102394.66;5113525;27;49895;-72
2022/03/20 10:57:34;;;;;;;;;25.00;22.50;;;;;9.80;40.52;102429.38;5113652;27;49697;-74
2022/03/20 11:00:11;;;;;;;;;23.00;20.75;;;;;9.68;39.92;102389.44;5113485;27;50496;-72
2022/03/20 11:02:39;;;;;;;;;30.25;25.25;;;;;10.00;38.72;102441.78;5112726;27;49572;-74
2022/03/20 11:05:06;;;;;;;;;24.50;21.50;;;;;9.56;38.32;102365.22;5109427;27;49735;-72
2022/03/20 11:07:31;;;;;;;;;13.75;13.75;;;;;9.97;37.83;102422.38;5111998;27;49965;-72
2022/03/20 11:09:57;;;;;;;;;28.75;24.50;;;;;10.00;37.00;102428.66;5111616;27;50609;-74
2022/03/20 11:12:26;;;;;;;;;26.25;22.75;;;;;10.03;38.08;102447.16;5108289;27;49655;-74
2022/03/20 11:14:54;;;;;;;;;30.50;24.00;;;;;10.04;36.58;102432.34;5111950;27;49960;-74
2022/03/20 11:17:26;;;;;;;;;22.25;19.75;;;;;9.96;37.75;102424.09;5113377;27;49785;-74
2022/03/20 11:19:56;;;;;;;;;17.25;17.25;;;;;9.65;37.36;102373.53;5111297;27;50732;-74
2022/03/20 11:22:23;;;;;;;;;23.00;18.00;;;;;9.74;37.95;102359.16;5110652;27;50322;-74
2022/03/20 11:24:51;;;;;;;;;21.25;17.50;;;;;9.19;37.18;102250.69;5111484;27;49750;-74
2022/03/20 11:27:23;;;;;;;;;10.75;9.25;;;;;10.08;37.72;102386.16;5108735;27;49626;-74
2022/03/20 11:29:54;;;;;;;;;24.50;24.50;;;;;10.36;37.43;102422.53;5111360;27;49824;-74
2022/03/20 11:32:20;;;;;;;;;21.00;19.50;;;;;10.07;36.93;102366.00;5110108;27;49966;-74
2022/03/20 11:34:47;;;;;;;;;14.75;12.25;;;;;9.78;36.04;102327.84;5111572;27;50002;-74
2022/03/20 11:37:15;;;;;;;;;25.50;22.50;;;;;9.91;36.46;102387.94;5111475;27;49972;-73
2022/03/20 11:40:15;;;;;;;;;23.50;20.75;;;;;10.40;36.91;102422.75;5108341;27;49687;-73
2022/03/20 11:42:42;;;;;;;;;26.00;23.25;;;;;10.26;36.43;102390.59;5110805;27;49985;-74
2022/03/20 11:45:10;;;;;;;;;14.00;12.75;;;;;10.41;35.96;102424.53;5111348;27;49848;-73
2022/03/20 11:47:37;;;;;;;;;26.00;22.00;;;;;10.35;36.23;102394.50;5109128;27;49861;-76
2022/03/20 11:50:14;;;;;;;;;19.75;18.75;;;;;10.53;35.66;102409.41;5109634;27;49889;-76
2022/03/20 11:53:03;;;;;;;;;19.75;19.25;;;;;10.60;35.70;102419.34;5109152;27;49899;-75
2022/03/20 11:55:51;;;;;;;;;22.50;21.25;;;;;10.71;36.22;102418.94;5110543;27;50078;-75
2022/03/20 11:58:16;;;;;;;;;27.50;24.25;;;;;9.99;35.26;102284.28;5110180;27;50020;-75